createdAt,value
2022-12-25T00:01:44.976Z,5.63
2022-12-25T00:11:49.142Z,5.70
2022-12-25T00:21:52.081Z,5.43
2022-12-25T00:31:56.262Z,4.93
2022-12-25T00:42:16.575Z,7.00
2022-12-25T00:52:20.626Z,5.23
2022-12-25T01:02:26.551Z,6.53
2022-12-25T01:12:31.465Z,5.78
2022-12-25T01:22:34.368Z,7.53
2022-12-25T01:32:38.414Z,5.82
2022-12-25T01:42:41.128Z,7.25
2022-12-25T01:52:45.888Z,7.78
2022-12-25T02:02:49.901Z,6.50
2022-12-25T02:12:54.338Z,7.68
2022-12-25T02:23:10.444Z,5.78
2022-12-25T02:33:36.940Z,7.22
2022-12-25T02:44:01.420Z,7.00
2022-12-25T02:54:43.104Z,6.85
2022-12-25T03:05:03.617Z,6.53
2022-12-25T03:15:28.408Z,8.15
2022-12-25T03:25:48.710Z,7.40
2022-12-25T03:36:04.153Z,6.73
2022-12-25T03:46:32.727Z,8.02
2022-12-25T03:56:56.815Z,7.60
2022-12-25T04:07:31.731Z,7.22
2022-12-25T04:17:53.378Z,9.10
2022-12-25T04:28:19.745Z,9.50
2022-12-25T04:38:24.512Z,9.68
2022-12-25T04:48:28.573Z,9.07
2022-12-25T04:58:34.771Z,8.38
2022-12-25T05:08:37.999Z,8.73
2022-12-25T05:18:42.166Z,9.15
2022-12-25T05:28:44.944Z,9.32
2022-12-25T05:38:49.171Z,8.95
2022-12-25T05:48:51.951Z,9.77
2022-12-25T05:58:56.113Z,10.60
2022-12-25T06:08:58.853Z,10.80
2022-12-25T06:19:02.909Z,10.57
2022-12-25T06:29:06.007Z,9.52
2022-12-25T06:39:11.139Z,11.30
2022-12-25T06:49:13.972Z,10.30
2022-12-25T06:59:18.079Z,12.48
2022-12-25T07:09:20.842Z,11.50
2022-12-25T07:19:25.946Z,12.18
2022-12-25T07:29:28.659Z,11.48
2022-12-25T07:39:34.023Z,13.55
2022-12-25T07:49:37.060Z,12.43
2022-12-25T07:59:41.128Z,11.70
2022-12-25T08:09:43.846Z,11.10
2022-12-25T08:19:47.877Z,13.07
2022-12-25T08:29:50.735Z,12.45
2022-12-25T08:39:54.856Z,10.40
2022-12-25T08:49:57.603Z,10.77
2022-12-25T09:00:01.785Z,9.73
2022-12-25T09:10:04.744Z,10.20
2022-12-25T09:20:09.619Z,9.02
2022-12-25T09:30:12.901Z,9.60
2022-12-25T09:40:19.881Z,10.48
2022-12-25T09:50:29.421Z,8.90
2022-12-25T10:00:38.452Z,9.13
2022-12-25T10:10:50.911Z,8.82
2022-12-25T10:20:57.203Z,8.38
2022-12-25T10:31:03.483Z,8.80
2022-12-25T10:41:19.884Z,7.75
2022-12-25T10:51:31.456Z,7.28
2022-12-25T11:01:35.595Z,6.97
2022-12-25T11:11:40.357Z,6.90
2022-12-25T11:21:52.416Z,7.22
2022-12-25T11:31:58.204Z,7.70
2022-12-25T11:42:06.790Z,7.13
2022-12-25T11:52:12.815Z,6.25
2022-12-25T12:02:27.431Z,6.88
2022-12-25T12:12:38.120Z,6.63
2022-12-25T12:22:51.414Z,6.13
2022-12-25T12:32:56.160Z,6.55
2022-12-25T12:43:13.348Z,14.55
2022-12-25T12:53:36.583Z,5.30
2022-12-25T13:04:19.301Z,6.53
2022-12-25T13:14:27.733Z,6.57
2022-12-25T13:24:36.416Z,4.93
2022-12-25T13:34:43.665Z,5.38
2022-12-25T13:44:53.081Z,4.85
2022-12-25T13:54:58.866Z,5.70
2022-12-25T14:05:03.352Z,4.65
2022-12-25T14:15:07.502Z,5.30
2022-12-25T14:25:17.231Z,5.20
2022-12-25T14:35:23.639Z,5.37
2022-12-25T14:45:31.105Z,5.57
2022-12-25T14:55:33.869Z,5.22
2022-12-25T15:05:40.209Z,5.18
2022-12-25T15:15:49.717Z,6.25
2022-12-25T15:25:53.899Z,5.93
2022-12-25T15:35:56.855Z,6.75
2022-12-25T15:46:01.034Z,6.47
2022-12-25T15:56:03.896Z,7.15
2022-12-25T16:06:11.451Z,5.68
2022-12-25T16:16:14.290Z,6.75
2022-12-25T16:26:18.630Z,7.30
2022-12-25T16:36:26.742Z,7.93
2022-12-25T16:46:31.360Z,7.50
2022-12-25T16:56:36.438Z,8.43
2022-12-25T17:06:40.618Z,8.77
2022-12-25T17:16:43.441Z,7.60
2022-12-25T17:26:48.099Z,7.88
2022-12-25T17:36:52.358Z,8.07
2022-12-25T17:46:56.452Z,9.38
2022-12-25T17:56:59.167Z,10.27
2022-12-25T18:07:04.145Z,12.35
2022-12-25T18:17:07.136Z,12.57
2022-12-25T18:27:11.387Z,12.10
2022-12-25T18:37:14.118Z,11.13
2022-12-25T18:47:18.366Z,14.45
2022-12-25T18:58:10.180Z,11.73
2022-12-25T19:08:14.652Z,11.27
2022-12-25T19:18:17.524Z,12.43
2022-12-25T19:28:21.635Z,12.35
2022-12-25T19:38:24.376Z,12.68
2022-12-25T19:48:29.123Z,15.30
2022-12-25T19:58:31.848Z,15.52
2022-12-25T20:08:36.004Z,14.77
2022-12-25T20:18:39.369Z,16.70
2022-12-25T20:28:44.427Z,16.58
2022-12-25T20:38:47.674Z,14.80
2022-12-25T20:48:51.930Z,14.15
2022-12-25T20:58:56.190Z,16.13
2022-12-25T21:09:00.741Z,14.93
2022-12-25T21:19:05.145Z,13.20
2022-12-25T21:29:10.619Z,14.75
2022-12-25T21:39:14.440Z,16.90
2022-12-25T21:49:38.613Z,17.02
2022-12-25T21:59:41.577Z,16.52
2022-12-25T22:09:47.227Z,16.67
2022-12-25T22:19:50.084Z,14.15
2022-12-25T22:29:54.374Z,21.25
2022-12-25T22:39:57.229Z,19.77
2022-12-25T22:50:01.336Z,14.30
2022-12-25T23:00:05.971Z,16.48
2022-12-25T23:10:11.378Z,14.05
2022-12-25T23:20:33.112Z,12.93
2022-12-25T23:30:37.555Z,18.17
2022-12-25T23:40:40.471Z,13.15
2022-12-25T23:50:44.855Z,10.73
